Time;durP1;ratioP1;P1;durP2;ratioP2;P2;SDS_P1;SDS_P2;PMS_P1;PMS_P2;Temp;Humidity;BMP_temperature;BMP_pressure;BME280_temperature;BME280_humidity;BME280_pressure;Samples;Min_cycle;Max_cycle;Signal;HPM_P1;HPM_P2
2021/08/26 00:01:17;;;;;;;6.78;2.05;;;;;;;-146.90;100.00;60518.97;5050813;28;20021;-70
2021/08/26 00:06:26;;;;;;;5.88;2.10;;;;;;;-146.90;100.00;60518.97;5049064;28;20068;-69
2021/08/26 00:08:54;;;;;;;6.90;2.00;;;;;;;-146.90;100.00;60518.97;5050419;28;20064;-69
2021/08/26 00:11:23;;;;;;;5.40;2.03;;;;;;;-146.90;100.00;60518.97;5049938;28;20021;-69
2021/08/26 00:13:51;;;;;;;7.63;2.10;;;;;;;-146.90;100.00;60518.97;5050648;28;20029;-69
2021/08/26 00:16:20;;;;;;;7.50;2.50;;;;;;;-146.90;100.00;60518.97;5050479;28;20063;-71
2021/08/26 00:18:46;;;;;;;7.95;2.50;;;;;;;-146.90;100.00;60518.97;5049448;28;20063;-69
2021/08/26 00:21:12;;;;;;;8.20;2.78;;;;;;;-146.90;100.00;60518.97;5051141;28;20037;-69
2021/08/26 00:23:38;;;;;;;8.05;2.70;;;;;;;-146.90;100.00;60518.97;5050524;28;20493;-70
2021/08/26 00:26:03;;;;;;;9.07;2.60;;;;;;;-146.90;100.00;60518.97;5049011;28;20029;-69
2021/08/26 00:28:28;;;;;;;8.10;2.78;;;;;;;-146.90;100.00;60518.97;5049215;28;20036;-69
2021/08/26 00:30:54;;;;;;;10.32;2.90;;;;;;;-146.90;100.00;60518.97;5050040;28;20131;-71
2021/08/26 00:33:19;;;;;;;10.75;2.97;;;;;;;-146.90;100.00;60518.97;5050140;28;20021;-69
2021/08/26 00:35:44;;;;;;;11.65;2.92;;;;;;;-146.90;100.00;60518.97;5050073;28;20487;-70
2021/08/26 00:38:10;;;;;;;11.15;3.20;;;;;;;-146.90;100.00;60518.97;5049886;28;20484;-69
2021/08/26 00:40:35;;;;;;;11.77;3.20;;;;;;;-146.90;100.00;60518.97;5049749;28;20024;-70
2021/08/26 00:43:00;;;;;;;12.68;3.25;;;;;;;-146.90;100.00;60518.97;5048680;28;20021;-69
2021/08/26 00:45:28;;;;;;;10.90;3.75;;;;;;;-146.90;100.00;60518.97;5049720;28;20035;-69
2021/08/26 00:47:53;;;;;;;17.70;3.53;;;;;;;-146.90;100.00;60518.97;5049406;28;20037;-69
2021/08/26 00:50:19;;;;;;;12.18;3.65;;;;;;;-146.90;100.00;60518.97;5049811;28;20025;-69
2021/08/26 00:52:46;;;;;;;12.50;3.22;;;;;;;-146.90;100.00;60518.97;5049481;28;20017;-69
2021/08/26 00:55:13;;;;;;;14.98;3.90;;;;;;;-146.90;100.00;60518.97;5049658;28;20576;-69
2021/08/26 00:57:38;;;;;;;14.10;3.40;;;;;;;-146.90;100.00;60518.97;5047830;28;20036;-69
2021/08/26 01:00:09;;;;;;;11.63;3.45;;;;;;;-146.90;100.00;60518.97;5048443;28;20024;-70
2021/08/26 01:02:46;;;;;;;18.95;3.92;;;;;;;-146.90;100.00;60518.97;5048255;28;20028;-69
2021/08/26 01:05:25;;;;;;;15.27;3.85;;;;;;;-146.90;100.00;60518.97;5049854;28;20135;-71
2021/08/26 01:07:57;;;;;;;14.65;4.00;;;;;;;-146.90;100.00;60518.97;5047824;28;20367;-69
2021/08/26 01:10:24;;;;;;;10.48;3.92;;;;;;;-146.90;100.00;60518.97;5049837;28;20051;-69
2021/08/26 01:12:53;;;;;;;14.30;3.78;;;;;;;-146.90;100.00;60518.97;5049117;28;20074;-70
2021/08/26 01:15:18;;;;;;;18.27;3.45;;;;;;;-146.90;100.00;60518.97;5048445;28;20398;-70
2021/08/26 01:17:45;;;;;;;12.38;3.58;;;;;;;-146.90;100.00;60518.97;5048991;28;20028;-69
2021/08/26 01:20:11;;;;;;;16.35;4.00;;;;;;;-146.90;100.00;60518.97;5048807;28;20017;-69
2021/08/26 01:22:37;;;;;;;15.80;3.58;;;;;;;-146.90;100.00;60518.97;5049770;28;20052;-69
2021/08/26 01:25:07;;;;;;;11.57;3.60;;;;;;;-146.90;100.00;60518.97;5050035;28;20170;-69
2021/08/26 01:27:43;;;;;;;17.70;3.67;;;;;;;-146.90;100.00;60518.97;5049117;28;20418;-69
2021/08/26 01:30:13;;;;;;;14.30;4.10;;;;;;;-146.90;100.00;60518.97;5049414;28;20036;-70
2021/08/26 01:32:39;;;;;;;18.65;3.88;;;;;;;-146.90;100.00;60518.97;5047809;28;20051;-69
2021/08/26 01:35:05;;;;;;;15.68;3.95;;;;;;;-146.90;100.00;60518.97;5048334;28;20470;-70
2021/08/26 01:37:30;;;;;;;16.55;3.60;;;;;;;-146.90;100.00;60518.97;5047767;28;20025;-69
2021/08/26 01:39:56;;;;;;;12.23;3.67;;;;;;;-146.90;100.00;60518.97;5049069;28;20017;-69
2021/08/26 01:42:28;;;;;;;19.75;4.15;;;;;;;-146.90;100.00;60518.97;5047836;28;20025;-69
2021/08/26 01:44:54;;;;;;;15.15;4.10;;;;;;;-146.90;100.00;60518.97;5049364;28;20032;-69
2021/08/26 01:47:21;;;;;;;17.15;5.10;;;;;;;-146.90;100.00;60518.97;5047320;28;20120;-70
2021/08/26 01:49:48;;;;;;;14.48;3.88;;;;;;;-146.90;100.00;60518.97;5048858;28;20024;-70
2021/08/26 01:52:18;;;;;;;16.80;4.43;;;;;;;-146.90;100.00;60518.97;5047649;28;20021;-70
2021/08/26 01:54:54;;;;;;;17.45;4.82;;;;;;;-146.90;100.00;60518.97;5048953;28;20035;-71
2021/08/26 01:57:24;;;;;;;19.40;4.75;;;;;;;-146.90;100.00;60518.97;5048972;28;20031;-70
2021/08/26 01:59:49;;;;;;;17.67;4.55;;;;;;;-146.90;100.00;60518.97;5047455;28;20021;-70
2021/08/26 02:02:15;;;;;;;17.17;4.50;;;;;;;-146.90;100.00;60518.97;5031625;28;20025;-69
2021/08/26 02:04:41;;;;;;;18.23;4.30;;;;;;;-146.90;100.00;60518.97;5047523;28;20090;-69
2021/08/26 02:07:06;;;;;;;15.85;4.78;;;;;;;-146.90;100.00;60518.97;5047724;28;20056;-68
2021/08/26 02:09:31;;;;;;;23.10;4.50;;;;;;;-146.90;100.00;60518.97;5048803;28;20091;-69
2021/08/26 02:11:57;;;;;;;20.63;4.55;;;;;;;-146.90;100.00;60518.97;5049406;28;20017;-69
2021/08/26 02:14:23;;;;;;;20.20;4.90;;;;;;;-146.90;100.00;60518.97;5047699;28;20051;-69
2021/08/26 02:16:48;;;;;;;22.23;4.68;;;;;;;-146.90;100.00;60518.97;5049524;28;20440;-69
2021/08/26 02:19:13;;;;;;;21.02;4.57;;;;;;;-146.90;100.00;60518.97;5047419;28;20552;-69
2021/08/26 02:21:39;;;;;;;22.52;4.45;;;;;;;-146.90;100.00;60518.97;5049096;28;20401;-69
2021/08/26 02:24:04;;;;;;;21.23;4.60;;;;;;;-146.90;100.00;60518.97;5048495;28;20044;-69
2021/08/26 02:26:29;;;;;;;18.40;4.35;;;;;;;-146.90;100.00;60518.97;5047683;28;20159;-69
2021/08/26 02:28:55;;;;;;;16.70;4.72;;;;;;;-146.90;100.00;60518.97;5047351;28;20500;-70
2021/08/26 02:31:20;;;;;;;22.13;4.78;;;;;;;-146.90;100.00;60518.97;5051734;28;20078;-69
2021/08/26 02:33:45;;;;;;;16.23;5.00;;;;;;;-146.90;100.00;60518.97;5052194;28;20029;-70
2021/08/26 02:36:11;;;;;;;16.45;3.97;;;;;;;-146.90;100.00;60518.97;5052302;28;20461;-70
2021/08/26 02:38:36;;;;;;;16.20;4.60;;;;;;;-146.90;100.00;60518.97;5052358;28;20443;-70
2021/08/26 02:41:02;;;;;;;16.17;4.22;;;;;;;-146.90;100.00;60518.97;5052790;28;20432;-69
2021/08/26 02:43:27;;;;;;;15.90;4.13;;;;;;;-146.90;100.00;60518.97;5051099;28;20029;-70
2021/08/26 02:45:52;;;;;;;19.50;4.30;;;;;;;-146.90;100.00;60518.97;5051875;28;20044;-69
2021/08/26 02:48:18;;;;;;;19.00;4.40;;;;;;;-146.90;100.00;60518.97;5050975;28;20496;-69
2021/08/26 02:50:43;;;;;;;17.77;4.50;;;;;;;-146.90;100.00;60518.97;5052022;28;20367;-69
2021/08/26 02:53:08;;;;;;;22.63;4.55;;;;;;;-146.90;100.00;60518.97;5052034;28;20029;-70
2021/08/26 02:55:34;;;;;;;14.15;3.90;;;;;;;-146.90;100.00;60518.97;5051732;28;20035;-70
2021/08/26 02:57:59;;;;;;;15.77;4.10;;;;;;;-146.90;100.00;60518.97;5051897;28;20025;-70
2021/08/26 03:00:24;;;;;;;17.50;4.70;;;;;;;-146.90;100.00;60518.97;5051829;28;20106;-69
2021/08/26 03:02:49;;;;;;;19.73;4.32;;;;;;;-146.90;100.00;60518.97;5050645;28;20025;-70
2021/08/26 03:05:15;;;;;;;20.73;4.25;;;;;;;-146.90;100.00;60518.97;5051721;28;20427;-68
2021/08/26 03:07:40;;;;;;;17.13;4.45;;;;;;;-146.90;100.00;60518.97;5052111;28;20017;-69
2021/08/26 03:10:06;;;;;;;17.48;4.20;;;;;;;-146.90;100.00;60518.97;5051590;28;20036;-70
2021/08/26 03:12:31;;;;;;;18.92;4.05;;;;;;;-146.90;100.00;60518.97;5051760;28;20025;-69
2021/08/26 03:14:57;;;;;;;17.63;3.90;;;;;;;-146.90;100.00;60518.97;5051915;28;20029;-69
2021/08/26 03:17:22;;;;;;;19.17;4.40;;;;;;;-146.90;100.00;60518.97;5051175;28;20043;-70
2021/08/26 03:19:47;;;;;;;19.33;4.07;;;;;;;-146.90;100.00;60518.97;5052333;28;20035;-69
2021/08/26 03:22:13;;;;;;;14.45;3.60;;;;;;;-146.90;100.00;60518.97;5050850;28;20078;-69
2021/08/26 03:24:38;;;;;;;17.20;3.72;;;;;;;-146.90;100.00;60518.97;5051856;28;20078;-69
2021/08/26 03:27:04;;;;;;;15.50;3.78;;;;;;;-146.90;100.00;60518.97;5051287;28;20028;-69
2021/08/26 03:29:29;;;;;;;15.95;3.63;;;;;;;-146.90;100.00;60518.97;5051455;28;20024;-69
2021/08/26 03:31:54;;;;;;;12.68;3.40;;;;;;;-146.90;100.00;60518.97;5051219;28;20021;-69
2021/08/26 03:34:20;;;;;;;14.55;3.70;;;;;;;-146.90;100.00;60518.97;5049747;28;20029;-69
2021/08/26 03:36:45;;;;;;;15.02;3.40;;;;;;;-146.90;100.00;60518.97;5051147;28;20070;-70
2021/08/26 03:39:10;;;;;;;17.58;3.50;;;;;;;-146.90;100.00;60518.97;5049911;28;20107;-69
2021/08/26 03:41:36;;;;;;;17.75;3.53;;;;;;;-146.90;100.00;60518.97;5050041;28;20497;-69
2021/08/26 03:44:01;;;;;;;15.15;3.72;;;;;;;-146.90;100.00;60518.97;5050577;28;20040;-69
2021/08/26 03:46:26;;;;;;;15.13;3.38;;;;;;;-146.90;100.00;60518.97;5033021;28;20054;-69
2021/08/26 03:48:52;;;;;;;15.90;3.78;;;;;;;-146.90;100.00;60518.97;5050840;28;20108;-69
2021/08/26 03:51:17;;;;;;;15.60;3.92;;;;;;;-146.90;100.00;60518.97;5050788;28;20495;-68
2021/08/26 03:53:42;;;;;;;14.15;3.58;;;;;;;-146.90;100.00;60518.97;5050602;28;20020;-69
2021/08/26 03:56:08;;;;;;;17.42;4.30;;;;;;;-146.90;100.00;60518.97;5032722;28;20224;-69
2021/08/26 03:58:34;;;;;;;18.33;3.85;;;;;;;-146.90;100.00;60518.97;5050576;28;20021;-70
2021/08/26 04:01:02;;;;;;;19.95;4.28;;;;;;;-146.90;100.00;60518.97;5050924;28;20442;-70
2021/08/26 04:03:27;;;;;;;15.20;3.88;;;;;;;-146.90;100.00;60518.97;5050360;28;20024;-69
2021/08/26 04:05:52;;;;;;;16.65;3.72;;;;;;;-146.90;100.00;60518.97;5050687;28;20460;-70
2021/08/26 04:08:18;;;;;;;20.83;3.78;;;;;;;-146.90;100.00;60518.97;5050147;28;20144;-69
2021/08/26 04:10:43;;;;;;;15.02;4.20;;;;;;;-146.90;100.00;60518.97;5049340;28;20446;-69
2021/08/26 04:13:08;;;;;;;16.15;3.83;;;;;;;-146.90;100.00;60518.97;5049890;28;20482;-69
2021/08/26 04:15:34;;;;;;;20.35;4.53;;;;;;;-146.90;100.00;60518.97;5050486;28;20021;-70
2021/08/26 04:17:59;;;;;;;15.48;3.35;;;;;;;-146.90;100.00;60518.97;5049062;28;20048;-70
2021/08/26 04:20:25;;;;;;;12.70;4.35;;;;;;;-146.90;100.00;60518.97;5050566;28;20428;-69
2021/08/26 04:22:50;;;;;;;18.27;4.15;;;;;;;-146.90;100.00;60518.97;5050076;28;20444;-69
2021/08/26 04:25:16;;;;;;;25.20;4.47;;;;;;;-146.90;100.00;60518.97;5049101;28;20021;-70
2021/08/26 04:27:41;;;;;;;20.15;4.10;;;;;;;-146.90;100.00;60518.97;5050073;28;20033;-69
2021/08/26 04:30:07;;;;;;;17.70;3.92;;;;;;;-146.90;100.00;60518.97;5048702;28;20090;-70
2021/08/26 04:32:32;;;;;;;20.27;3.78;;;;;;;-146.90;100.00;60518.97;5049991;28;20146;-69
2021/08/26 04:34:58;;;;;;;17.45;5.13;;;;;;;-146.90;100.00;60518.97;5050311;28;20506;-69
2021/08/26 04:37:23;;;;;;;19.40;4.07;;;;;;;-146.90;100.00;60518.97;5049996;28;20456;-69
2021/08/26 04:39:48;;;;;;;21.63;4.47;;;;;;;-146.90;100.00;60518.97;5049797;28;20078;-70
2021/08/26 04:42:14;;;;;;;20.70;4.30;;;;;;;-146.90;100.00;60518.97;5048643;28;20025;-69
2021/08/26 04:44:39;;;;;;;17.55;3.55;;;;;;;-146.90;100.00;60518.97;5049385;28;20028;-70
2021/08/26 04:47:04;;;;;;;16.52;4.00;;;;;;;-146.90;100.00;60518.97;5049733;28;20251;-69
2021/08/26 04:49:30;;;;;;;15.30;3.55;;;;;;;-146.90;100.00;60518.97;5048831;28;20060;-69
2021/08/26 04:51:55;;;;;;;12.70;3.10;;;;;;;-146.90;100.00;60518.97;5047635;28;20025;-70
2021/08/26 04:54:20;;;;;;;12.88;3.10;;;;;;;-146.90;100.00;60518.97;5049066;28;20390;-69
2021/08/26 04:56:46;;;;;;;14.45;3.30;;;;;;;-146.90;100.00;60518.97;5049762;28;20025;-70
2021/08/26 04:59:11;;;;;;;15.73;3.10;;;;;;;-146.90;100.00;60518.97;5049462;28;20057;-71
2021/08/26 05:01:36;;;;;;;16.33;3.13;;;;;;;-146.90;100.00;60518.97;5049622;28;20025;-70
2021/08/26 05:04:03;;;;;;;12.13;2.92;;;;;;;-146.90;100.00;60518.97;5049409;28;20025;-69
2021/08/26 05:06:32;;;;;;;10.35;2.58;;;;;;;-146.90;100.00;60518.97;5049792;28;20025;-69
2021/08/26 05:08:57;;;;;;;16.67;3.60;;;;;;;-146.90;100.00;60518.97;5049832;28;20025;-69
2021/08/26 05:11:22;;;;;;;18.77;3.40;;;;;;;-146.90;100.00;60518.97;5033163;28;20531;-70
2021/08/26 05:13:48;;;;;;;17.50;3.13;;;;;;;-146.90;100.00;60518.97;5051034;28;20032;-69
2021/08/26 05:16:14;;;;;;;16.90;3.38;;;;;;;-146.90;100.00;60518.97;5050978;28;20035;-69
2021/08/26 05:18:39;;;;;;;14.57;3.35;;;;;;;-146.90;100.00;60518.97;5051416;28;20112;-69
2021/08/26 05:21:05;;;;;;;15.07;3.20;;;;;;;-146.90;100.00;60518.97;5050943;28;20040;-70
2021/08/26 05:23:30;;;;;;;15.90;3.42;;;;;;;-146.90;100.00;60518.97;5050575;28;20025;-69
2021/08/26 05:25:56;;;;;;;14.20;2.83;;;;;;;-146.90;100.00;60518.97;5049849;28;20021;-69
2021/08/26 05:28:21;;;;;;;11.27;2.95;;;;;;;-146.90;100.00;60518.97;5048245;28;20025;-69
2021/08/26 05:30:46;;;;;;;16.15;3.25;;;;;;;-146.90;100.00;60518.97;5049837;28;20445;-69
2021/08/26 05:33:12;;;;;;;13.07;3.13;;;;;;;-146.90;100.00;60518.97;5049907;28;20028;-68
2021/08/26 05:35:37;;;;;;;21.48;3.92;;;;;;;-146.90;100.00;60518.97;5049354;28;20057;-70
2021/08/26 05:38:03;;;;;;;11.15;3.03;;;;;;;-146.90;100.00;60518.97;5050133;28;20043;-70
2021/08/26 05:40:28;;;;;;;12.35;2.67;;;;;;;-146.90;100.00;60518.97;5049606;28;20071;-69
2021/08/26 05:42:53;;;;;;;12.38;3.00;;;;;;;-146.90;100.00;60518.97;5049565;28;20036;-70
2021/08/26 05:45:19;;;;;;;14.02;3.05;;;;;;;-146.90;100.00;60518.97;5049189;28;20628;-70
2021/08/26 05:47:44;;;;;;;11.55;2.80;;;;;;;-146.90;100.00;60518.97;5049635;28;20035;-70
2021/08/26 05:50:10;;;;;;;12.25;2.85;;;;;;;-146.90;100.00;60518.97;5049327;28;20112;-69
2021/08/26 05:52:35;;;;;;;10.43;2.75;;;;;;;-146.90;100.00;60518.97;5049567;28;20033;-69
2021/08/26 05:55:00;;;;;;;15.25;3.28;;;;;;;-146.90;100.00;60518.97;5047587;28;20134;-69
2021/08/26 05:57:26;;;;;;;14.13;2.90;;;;;;;-146.90;100.00;60518.97;5048226;28;20119;-68
2021/08/26 05:59:51;;;;;;;13.65;3.20;;;;;;;-146.90;100.00;60518.97;5049263;28;20031;-68
2021/08/26 06:02:16;;;;;;;11.93;3.15;;;;;;;-146.90;100.00;60518.97;5049632;28;20021;-69
2021/08/26 06:04:42;;;;;;;12.80;2.42;;;;;;;-146.90;100.00;60518.97;5049559;28;20064;-68
2021/08/26 06:07:07;;;;;;;11.40;2.95;;;;;;;-146.90;100.00;60518.97;5053290;28;20024;-69
2021/08/26 06:09:32;;;;;;;14.88;3.60;;;;;;;-146.90;100.00;60518.97;5053208;28;20105;-69
2021/08/26 06:11:58;;;;;;;13.88;2.42;;;;;;;-146.90;100.00;60518.97;5053309;28;20020;-70
2021/08/26 06:14:23;;;;;;;10.57;2.35;;;;;;;-146.90;100.00;60518.97;5052658;28;20036;-71
2021/08/26 06:16:48;;;;;;;12.07;2.97;;;;;;;-146.90;100.00;60518.97;5053121;28;20031;-70
2021/08/26 06:19:14;;;;;;;12.02;2.92;;;;;;;-146.90;100.00;60518.97;5053375;28;20537;-69
2021/08/26 06:21:39;;;;;;;10.13;2.70;;;;;;;-146.90;100.00;60518.97;5052134;28;20052;-69
2021/08/26 06:24:06;;;;;;;14.40;3.22;;;;;;;-146.90;100.00;60518.97;5051815;28;20029;-69
2021/08/26 06:26:37;;;;;;;14.40;2.83;;;;;;;-146.90;100.00;60518.97;5052462;28;20428;-69
2021/08/26 06:29:03;;;;;;;14.90;3.17;;;;;;;-146.90;100.00;60518.97;5035386;28;20021;-69
2021/08/26 06:31:28;;;;;;;12.85;2.92;;;;;;;-146.90;100.00;60518.97;5052643;28;20154;-69
2021/08/26 06:33:53;;;;;;;13.57;3.20;;;;;;;-146.90;100.00;60518.97;5052324;28;20501;-69
2021/08/26 06:36:19;;;;;;;11.57;2.92;;;;;;;-146.90;100.00;60518.97;5052057;28;20036;-69
2021/08/26 06:38:44;;;;;;;10.32;2.95;;;;;;;-146.90;100.00;60518.97;5052052;28;20071;-68
2021/08/26 06:41:09;;;;;;;14.18;3.20;;;;;;;-146.90;100.00;60518.97;5051918;28;20049;-69
2021/08/26 06:43:35;;;;;;;9.82;2.50;;;;;;;-146.90;100.00;60518.97;5051975;28;20025;-69
2021/08/26 06:46:00;;;;;;;9.82;3.20;;;;;;;-146.90;100.00;60518.97;5051968;28;20032;-69
2021/08/26 06:48:26;;;;;;;13.23;3.33;;;;;;;-146.90;100.00;60518.97;5051790;28;20021;-69
2021/08/26 06:50:51;;;;;;;15.68;4.07;;;;;;;-146.90;100.00;60518.97;5051013;28;20075;-71
2021/08/26 06:53:16;;;;;;;16.58;3.42;;;;;;;-146.90;100.00;60518.97;5050045;28;20116;-69
2021/08/26 06:55:42;;;;;;;11.57;3.20;;;;;;;-146.90;100.00;60518.97;5051810;28;20111;-69
2021/08/26 06:58:07;;;;;;;14.07;3.58;;;;;;;-146.90;100.00;60518.97;5051702;28;20017;-68
2021/08/26 07:00:32;;;;;;;20.75;3.83;;;;;;;-146.90;100.00;60518.97;5051913;28;20497;-69
2021/08/26 07:02:58;;;;;;;15.50;3.65;;;;;;;-146.90;100.00;60518.97;5050131;28;20490;-68
2021/08/26 07:05:23;;;;;;;11.48;3.08;;;;;;;-146.90;100.00;60518.97;5051747;28;20033;-69
2021/08/26 07:07:49;;;;;;;15.75;2.72;;;;;;;-146.90;100.00;60518.97;5051136;28;20025;-69
2021/08/26 07:10:15;;;;;;;13.75;3.63;;;;;;;-146.90;100.00;60518.97;5051496;28;20103;-69
2021/08/26 07:12:40;;;;;;;16.08;3.72;;;;;;;-146.90;100.00;60518.97;5049718;28;20390;-69
2021/08/26 07:15:06;;;;;;;17.48;4.10;;;;;;;-146.90;100.00;60518.97;5050465;28;20021;-69
2021/08/26 07:17:31;;;;;;;13.73;3.45;;;;;;;-146.90;100.00;60518.97;5051345;28;20032;-69
2021/08/26 07:19:57;;;;;;;14.38;3.90;;;;;;;-146.90;100.00;60518.97;5051517;28;20452;-69
2021/08/26 07:22:22;;;;;;;18.92;3.15;;;;;;;-146.90;100.00;60518.97;5051061;28;20522;-69
2021/08/26 07:24:47;;;;;;;13.23;2.83;;;;;;;-146.90;100.00;60518.97;5051231;28;20035;-69
2021/08/26 07:27:13;;;;;;;10.00;2.55;;;;;;;-146.90;100.00;60518.97;5051384;28;20036;-70
2021/08/26 07:29:38;;;;;;;10.82;2.30;;;;;;;-146.90;100.00;60518.97;5050949;28;20132;-68
2021/08/26 07:32:04;;;;;;;10.55;2.45;;;;;;;-146.90;100.00;60518.97;5051735;28;20039;-68
2021/08/26 07:34:29;;;;;;;8.30;2.10;;;;;;;-146.90;100.00;60518.97;5051192;28;20119;-70
2021/08/26 07:36:55;;;;;;;8.15;2.13;;;;;;;-146.90;100.00;60518.97;5051838;28;20024;-69
2021/08/26 07:39:20;;;;;;;7.07;2.00;;;;;;;-146.90;100.00;60518.97;5049534;28;20116;-69
2021/08/26 07:41:45;;;;;;;9.00;2.22;;;;;;;-146.90;100.00;60518.97;5050286;28;20112;-70
2021/08/26 07:44:11;;;;;;;6.60;1.90;;;;;;;-146.90;100.00;60518.97;5050779;28;20120;-70
2021/08/26 07:46:36;;;;;;;9.38;2.08;;;;;;;-146.90;100.00;60518.97;5049666;28;20108;-70
2021/08/26 07:49:02;;;;;;;6.50;1.88;;;;;;;-146.90;100.00;60518.97;5050683;28;20386;-70
2021/08/26 07:51:28;;;;;;;7.32;2.22;;;;;;;-146.90;100.00;60518.97;5049753;28;20032;-69
2021/08/26 07:53:53;;;;;;;6.93;2.00;;;;;;;-146.90;100.00;60518.97;5050341;28;20039;-70
2021/08/26 07:56:18;;;;;;;9.20;2.42;;;;;;;-146.90;100.00;60518.97;5050625;28;20029;-70
2021/08/26 07:58:43;;;;;;;5.75;1.83;;;;;;;-146.90;100.00;60518.97;5050517;28;20025;-70
2021/08/26 08:01:09;;;;;;;9.93;2.67;;;;;;;-146.90;100.00;60518.97;5050766;28;20057;-70
2021/08/26 08:03:34;;;;;;;8.30;2.28;;;;;;;-146.90;100.00;60518.97;5050470;28;20103;-70
2021/08/26 08:06:01;;;;;;;8.57;2.30;;;;;;;-146.90;100.00;60518.97;5050531;28;20021;-70
2021/08/26 08:08:26;;;;;;;7.72;2.30;;;;;;;-146.90;100.00;60518.97;5049344;28;20025;-69
2021/08/26 08:10:51;;;;;;;7.22;2.25;;;;;;;-146.90;100.00;60518.97;5050662;28;20039;-70
2021/08/26 08:13:17;;;;;;;9.35;2.33;;;;;;;-146.90;100.00;60518.97;5050438;28;20063;-71
2021/08/26 08:15:44;;;;;;;11.45;3.63;;;;;;;-146.90;100.00;60518.97;5050414;28;20036;-70
2021/08/26 08:18:09;;;;;;;6.13;1.95;;;;;;;-146.90;100.00;60518.97;5050301;28;20036;-71
2021/08/26 08:20:35;;;;;;;10.70;2.55;;;;;;;-146.90;100.00;60518.97;5050198;28;20025;-68
2021/08/26 08:23:00;;;;;;;11.20;2.45;;;;;;;-146.90;100.00;60518.97;5050150;28;20029;-70
2021/08/26 08:25:25;;;;;;;6.75;2.13;;;;;;;-146.90;100.00;60518.97;5049807;28;20091;-70
2021/08/26 08:27:51;;;;;;;6.85;2.22;;;;;;;-146.90;100.00;60518.97;5050260;28;20478;-70
2021/08/26 08:30:16;;;;;;;12.88;2.38;;;;;;;-146.90;100.00;60518.97;5049758;28;20032;-70
2021/08/26 08:32:41;;;;;;;10.70;2.40;;;;;;;-146.90;100.00;60518.97;5051181;28;20047;-70
2021/08/26 08:35:07;;;;;;;8.40;2.20;;;;;;;-146.90;100.00;60518.97;5049552;28;20025;-70
2021/08/26 08:37:33;;;;;;;8.13;2.30;;;;;;;-146.90;100.00;60518.97;5049340;28;20115;-69
2021/08/26 08:39:58;;;;;;;7.47;2.42;;;;;;;-146.90;100.00;60518.97;5050302;28;20526;-70
2021/08/26 08:42:24;;;;;;;11.57;2.55;;;;;;;-146.90;100.00;60518.97;5050452;28;20107;-70
2021/08/26 08:44:49;;;;;;;9.30;2.30;;;;;;;-146.90;100.00;60518.97;5050427;28;20516;-69
2021/08/26 08:47:15;;;;;;;6.57;2.20;;;;;;;-146.90;100.00;60518.97;5051094;28;20115;-70
2021/08/26 08:49:42;;;;;;;7.38;2.38;;;;;;;-146.90;100.00;60518.97;5049084;28;20357;-70
2021/08/26 08:52:08;;;;;;;10.52;2.78;;;;;;;-146.90;100.00;60518.97;5050459;28;20023;-71
2021/08/26 08:54:33;;;;;;;8.57;2.45;;;;;;;-146.90;100.00;60518.97;5049710;28;20029;-70
2021/08/26 08:56:59;;;;;;;6.75;2.47;;;;;;;-146.90;100.00;60518.97;5049789;28;20058;-70
2021/08/26 08:59:28;;;;;;;11.63;3.25;;;;;;;-146.90;100.00;60518.97;5049579;28;20099;-70
2021/08/26 09:01:53;;;;;;;13.05;2.90;;;;;;;-146.90;100.00;60518.97;5049432;28;20040;-70
2021/08/26 09:04:22;;;;;;;11.10;3.70;;;;;;;-146.90;100.00;60518.97;5048219;28;20466;-71
2021/08/26 09:06:49;;;;;;;15.63;3.80;;;;;;;-146.90;100.00;60518.97;5049356;28;20291;-70
2021/08/26 09:09:15;;;;;;;13.15;3.45;;;;;;;-146.90;100.00;60518.97;5049585;28;20017;-70
2021/08/26 09:11:54;;;;;;;11.00;3.17;;;;;;;-146.90;100.00;60518.97;5049175;28;20128;-70
2021/08/26 09:14:23;;;;;;;15.60;3.72;;;;;;;-146.90;100.00;60518.97;5049665;28;20401;-68
2021/08/26 09:16:51;;;;;;;10.95;3.45;;;;;;;-146.90;100.00;60518.97;5050258;28;20048;-70
2021/08/26 09:19:20;;;;;;;16.40;3.78;;;;;;;-146.90;100.00;60518.97;5048037;28;20029;-70
2021/08/26 09:21:47;;;;;;;16.90;3.65;;;;;;;-146.90;100.00;60518.97;5049439;28;20025;-70
2021/08/26 09:24:12;;;;;;;14.52;3.20;;;;;;;-146.90;100.00;60518.97;5049438;28;20028;-71
2021/08/26 09:26:40;;;;;;;12.65;3.22;;;;;;;-146.90;100.00;60518.97;5047973;28;20390;-70
2021/08/26 09:29:08;;;;;;;13.88;2.95;;;;;;;-146.90;100.00;60518.97;5049519;28;20100;-70
2021/08/26 09:31:33;;;;;;;20.45;3.67;;;;;;;-146.90;100.00;60518.97;5049524;28;20418;-69
2021/08/26 09:34:00;;;;;;;16.27;3.47;;;;;;;-146.90;100.00;60518.97;5049879;28;20023;-69
2021/08/26 09:36:27;;;;;;;14.38;3.47;;;;;;;-146.90;100.00;60518.97;5048397;28;20023;-70
2021/08/26 09:38:59;;;;;;;13.27;3.45;;;;;;;-146.90;100.00;60518.97;5049348;28;20100;-69
2021/08/26 09:41:50;;;;;;;19.80;4.95;;;;;;;-146.90;100.00;60518.97;5052669;28;20033;-70
2021/08/26 09:44:23;;;;;;;11.23;3.30;;;;;;;-146.90;100.00;60518.97;5050542;28;20175;-69
2021/08/26 09:46:51;;;;;;;16.02;3.55;;;;;;;-146.90;100.00;60518.97;5051812;28;20123;-69
2021/08/26 09:49:18;;;;;;;14.00;3.20;;;;;;;-146.90;100.00;60518.97;5053387;28;20028;-69
2021/08/26 09:51:44;;;;;;;14.85;3.80;;;;;;;-146.90;100.00;60518.97;5052978;28;20067;-68
2021/08/26 09:54:36;;;;;;;11.75;3.03;;;;;;;-146.90;100.00;60518.97;5051999;28;20492;-69
2021/08/26 09:57:02;;;;;;;17.63;4.38;;;;;;;-146.90;100.00;60518.97;5052867;28;20051;-70
2021/08/26 09:59:43;;;;;;;15.48;3.88;;;;;;;-146.90;100.00;60518.97;5051911;28;20059;-70
2021/08/26 10:02:09;;;;;;;19.13;4.22;;;;;;;-146.90;100.00;60518.97;5053149;28;20371;-70
2021/08/26 10:04:34;;;;;;;18.75;4.00;;;;;;;-146.90;100.00;60518.97;5052859;28;20465;-70
2021/08/26 10:06:59;;;;;;;16.17;3.38;;;;;;;-146.90;100.00;60518.97;5052144;28;20027;-70
2021/08/26 10:09:25;;;;;;;15.98;4.00;;;;;;;-146.90;100.00;60518.97;5050736;28;20029;-70
2021/08/26 10:11:51;;;;;;;14.35;4.50;;;;;;;-146.90;100.00;60518.97;5052752;28;20035;-70
2021/08/26 10:14:16;;;;;;;17.10;4.10;;;;;;;-146.90;100.00;60518.97;5051034;28;20128;-69
2021/08/26 10:16:42;;;;;;;18.52;4.60;;;;;;;-146.90;100.00;60518.97;5052689;28;20079;-68
2021/08/26 10:19:08;;;;;;;18.40;4.90;;;;;;;-146.90;100.00;60518.97;5051686;28;20044;-70
2021/08/26 10:21:33;;;;;;;16.65;4.53;;;;;;;-146.90;100.00;60518.97;5050926;28;20098;-70
2021/08/26 10:23:59;;;;;;;22.00;4.68;;;;;;;-146.90;100.00;60518.97;5051756;28;20490;-69
2021/08/26 10:26:25;;;;;;;15.82;4.60;;;;;;;-146.90;100.00;60518.97;5050953;28;20024;-68
2021/08/26 10:28:51;;;;;;;11.65;4.38;;;;;;;-146.90;100.00;60518.97;5050476;28;20029;-68
2021/08/26 10:31:23;;;;;;;17.98;4.05;;;;;;;-146.90;100.00;60518.97;5052310;28;20021;-69
2021/08/26 10:33:49;;;;;;;16.83;4.78;;;;;;;-146.90;100.00;60518.97;5052317;28;20029;-69
2021/08/26 10:36:15;;;;;;;16.38;4.68;;;;;;;-146.90;100.00;60518.97;5052546;28;20150;-68
2021/08/26 10:38:40;;;;;;;16.67;4.85;;;;;;;-146.90;100.00;60518.97;5052021;28;20044;-70
2021/08/26 10:41:18;;;;;;;23.27;5.03;;;;;;;-146.90;100.00;60518.97;5051028;28;20381;-70
2021/08/26 10:43:43;;;;;;;17.98;5.53;;;;;;;-146.90;100.00;60518.97;5050534;28;20033;-71
2021/08/26 10:46:11;;;;;;;15.15;5.53;;;;;;;-146.90;100.00;60518.97;5052220;28;20036;-70
2021/08/26 10:48:38;;;;;;;19.90;4.85;;;;;;;-146.90;100.00;60518.97;5051295;28;20048;-70
2021/08/26 10:51:15;;;;;;;19.65;5.30;;;;;;;-146.90;100.00;60518.97;5051354;28;20032;-71
2021/08/26 10:53:48;;;;;;;16.15;4.47;;;;;;;-146.90;100.00;60518.97;5051415;28;20054;-70
2021/08/26 10:56:22;;;;;;;16.48;4.68;;;;;;;-146.90;100.00;60518.97;5051907;28;20086;-70
2021/08/26 10:58:53;;;;;;;20.83;5.50;;;;;;;-146.90;100.00;60518.97;5049734;28;20025;-71
2021/08/26 11:01:38;;;;;;;18.20;4.63;;;;;;;-146.90;100.00;60518.97;5051810;28;20394;-71